sensor_id;sensor_type;location;lat;lon;timestamp;temperature;humidity
16102;DHT22;56411;52.964;10.540;2023-07-22T00:01:36;11.30;99.90
16102;DHT22;56411;52.964;10.540;2023-07-22T00:04:04;11.30;99.90
16102;DHT22;56411;52.964;10.540;2023-07-22T00:06:35;11.30;99.90
16102;DHT22;56411;52.964;10.540;2023-07-22T00:09:02;11.20;99.90
16102;DHT22;56411;52.964;10.540;2023-07-22T00:11:29;11.20;99.90
16102;DHT22;56411;52.964;10.540;2023-07-22T00:13:56;11.20;99.90
16102;DHT22;56411;52.964;10.540;2023-07-22T00:16:24;11.30;99.90
16102;DHT22;56411;52.964;10.540;2023-07-22T00:18:51;11.30;99.90
16102;DHT22;56411;52.964;10.540;2023-07-22T00:21:19;11.30;99.90
16102;DHT22;56411;52.964;10.540;2023-07-22T00:23:47;11.30;99.90
16102;DHT22;56411;52.964;10.540;2023-07-22T00:26:14;11.20;99.90
16102;DHT22;56411;52.964;10.540;2023-07-22T00:28:41;11.20;99.90
16102;DHT22;56411;52.964;10.540;2023-07-22T00:31:09;11.20;99.90
16102;DHT22;56411;52.964;10.540;2023-07-22T00:33:36;11.10;99.90
16102;DHT22;56411;52.964;10.540;2023-07-22T00:36:04;11.20;99.90
16102;DHT22;56411;52.964;10.540;2023-07-22T00:38:31;11.20;99.90
16102;DHT22;56411;52.964;10.540;2023-07-22T00:40:59;11.20;99.90
16102;DHT22;56411;52.964;10.540;2023-07-22T00:43:30;11.30;99.90
16102;DHT22;56411;52.964;10.540;2023-07-22T00:45:57;11.40;99.90
16102;DHT22;56411;52.964;10.540;2023-07-22T00:48:24;11.40;99.90
16102;DHT22;56411;52.964;10.540;2023-07-22T00:50:52;11.50;99.90
16102;DHT22;56411;52.964;10.540;2023-07-22T00:53:19;11.50;99.90
16102;DHT22;56411;52.964;10.540;2023-07-22T00:55:46;11.60;99.90
16102;DHT22;56411;52.964;10.540;2023-07-22T00:58:15;11.70;99.90
16102;DHT22;56411;52.964;10.540;2023-07-22T01:00:42;11.70;99.90
16102;DHT22;56411;52.964;10.540;2023-07-22T01:03:09;11.80;99.90
16102;DHT22;56411;52.964;10.540;2023-07-22T01:05:37;11.80;99.90
16102;DHT22;56411;52.964;10.540;2023-07-22T01:08:05;11.90;99.90
16102;DHT22;56411;52.964;10.540;2023-07-22T01:10:32;11.90;99.90
16102;DHT22;56411;52.964;10.540;2023-07-22T01:12:59;11.90;99.90
16102;DHT22;56411;52.964;10.540;2023-07-22T01:15:28;11.90;99.90
16102;DHT22;56411;52.964;10.540;2023-07-22T01:17:55;11.90;99.90
16102;DHT22;56411;52.964;10.540;2023-07-22T01:20:27;11.80;99.90
16102;DHT22;56411;52.964;10.540;2023-07-22T01:22:57;11.80;99.90
16102;DHT22;56411;52.964;10.540;2023-07-22T01:25:24;11.80;99.90
16102;DHT22;56411;52.964;10.540;2023-07-22T01:27:51;11.80;99.90
16102;DHT22;56411;52.964;10.540;2023-07-22T01:30:19;11.80;99.90
16102;DHT22;56411;52.964;10.540;2023-07-22T01:32:46;11.70;99.90
16102;DHT22;56411;52.964;10.540;2023-07-22T01:35:16;11.70;99.90
16102;DHT22;56411;52.964;10.540;2023-07-22T01:37:43;11.70;99.90
16102;DHT22;56411;52.964;10.540;2023-07-22T01:40:13;11.70;99.90
16102;DHT22;56411;52.964;10.540;2023-07-22T01:42:40;11.60;99.90
16102;DHT22;56411;52.964;10.540;2023-07-22T01:45:09;11.50;99.90
16102;DHT22;56411;52.964;10.540;2023-07-22T01:47:36;11.60;99.90
16102;DHT22;56411;52.964;10.540;2023-07-22T01:50:05;11.50;99.90
16102;DHT22;56411;52.964;10.540;2023-07-22T01:52:32;11.50;99.90
16102;DHT22;56411;52.964;10.540;2023-07-22T01:54:59;11.40;99.90
16102;DHT22;56411;52.964;10.540;2023-07-22T01:57:28;11.50;99.90
16102;DHT22;56411;52.964;10.540;2023-07-22T01:59:55;11.40;99.90
16102;DHT22;56411;52.964;10.540;2023-07-22T02:02:22;11.50;99.90
16102;DHT22;56411;52.964;10.540;2023-07-22T02:04:49;11.40;99.90
16102;DHT22;56411;52.964;10.540;2023-07-22T02:07:16;11.40;99.90
16102;DHT22;56411;52.964;10.540;2023-07-22T02:09:43;11.30;99.90
16102;DHT22;56411;52.964;10.540;2023-07-22T02:12:11;11.40;99.90
16102;DHT22;56411;52.964;10.540;2023-07-22T02:14:39;11.30;99.90
16102;DHT22;56411;52.964;10.540;2023-07-22T02:17:06;11.20;99.90
16102;DHT22;56411;52.964;10.540;2023-07-22T02:19:35;11.20;99.90
16102;DHT22;56411;52.964;10.540;2023-07-22T02:22:03;11.20;99.90
16102;DHT22;56411;52.964;10.540;2023-07-22T02:24:30;11.20;99.90
16102;DHT22;56411;52.964;10.540;2023-07-22T02:26:57;11.20;99.90
16102;DHT22;56411;52.964;10.540;2023-07-22T02:29:24;11.20;99.90
16102;DHT22;56411;52.964;10.540;2023-07-22T02:31:52;11.20;99.90
16102;DHT22;56411;52.964;10.540;2023-07-22T02:34:19;11.10;99.90
16102;DHT22;56411;52.964;10.540;2023-07-22T02:36:47;11.20;99.90
16102;DHT22;56411;52.964;10.540;2023-07-22T02:39:14;11.10;99.90
16102;DHT22;56411;52.964;10.540;2023-07-22T02:41:42;11.10;99.90
16102;DHT22;56411;52.964;10.540;2023-07-22T02:44:09;11.00;99.90
16102;DHT22;56411;52.964;10.540;2023-07-22T02:46:36;11.00;99.90
16102;DHT22;56411;52.964;10.540;2023-07-22T02:49:04;11.00;99.90
16102;DHT22;56411;52.964;10.540;2023-07-22T02:51:32;11.10;99.90
16102;DHT22;56411;52.964;10.540;2023-07-22T02:53:59;11.10;99.90
16102;DHT22;56411;52.964;10.540;2023-07-22T02:56:26;11.00;99.90
16102;DHT22;56411;52.964;10.540;2023-07-22T02:58:53;11.10;99.90
16102;DHT22;56411;52.964;10.540;2023-07-22T03:01:20;11.00;99.90
16102;DHT22;56411;52.964;10.540;2023-07-22T03:03:47;11.00;99.90
16102;DHT22;56411;52.964;10.540;2023-07-22T03:06:15;11.00;99.90
16102;DHT22;56411;52.964;10.540;2023-07-22T03:08:42;11.00;99.90
16102;DHT22;56411;52.964;10.540;2023-07-22T03:11:09;10.90;99.90
16102;DHT22;56411;52.964;10.540;2023-07-22T03:13:36;10.90;99.90
16102;DHT22;56411;52.964;10.540;2023-07-22T03:16:03;10.90;99.90
16102;DHT22;56411;52.964;10.540;2023-07-22T03:18:31;10.90;99.90
16102;DHT22;56411;52.964;10.540;2023-07-22T03:20:58;10.90;99.90
16102;DHT22;56411;52.964;10.540;2023-07-22T03:23:26;11.00;99.90
16102;DHT22;56411;52.964;10.540;2023-07-22T03:25:53;10.90;99.90
16102;DHT22;56411;52.964;10.540;2023-07-22T03:28:20;10.90;99.90
16102;DHT22;56411;52.964;10.540;2023-07-22T03:30:47;10.90;99.90
16102;DHT22;56411;52.964;10.540;2023-07-22T03:33:14;10.90;99.90
16102;DHT22;56411;52.964;10.540;2023-07-22T03:35:43;11.00;99.90
16102;DHT22;56411;52.964;10.540;2023-07-22T03:38:10;10.90;99.90
16102;DHT22;56411;52.964;10.540;2023-07-22T03:40:39;11.00;99.90
16102;DHT22;56411;52.964;10.540;2023-07-22T03:43:06;11.00;99.90
16102;DHT22;56411;52.964;10.540;2023-07-22T03:45:33;11.00;99.90
16102;DHT22;56411;52.964;10.540;2023-07-22T03:48:00;11.00;99.90
16102;DHT22;56411;52.964;10.540;2023-07-22T03:50:28;11.00;99.90
16102;DHT22;56411;52.964;10.540;2023-07-22T03:52:55;11.00;99.90
16102;DHT22;56411;52.964;10.540;2023-07-22T03:55:22;11.00;99.90
16102;DHT22;56411;52.964;10.540;2023-07-22T03:57:50;11.00;99.90
16102;DHT22;56411;52.964;10.540;2023-07-22T04:00:17;11.00;99.90
16102;DHT22;56411;52.964;10.540;2023-07-22T04:02:45;11.00;99.90
16102;DHT22;56411;52.964;10.540;2023-07-22T04:05:12;11.00;99.90
16102;DHT22;56411;52.964;10.540;2023-07-22T04:07:39;11.00;99.90
16102;DHT22;56411;52.964;10.540;2023-07-22T04:10:07;10.90;99.90
16102;DHT22;56411;52.964;10.540;2023-07-22T04:12:34;11.00;99.90
16102;DHT22;56411;52.964;10.540;2023-07-22T04:15:03;11.00;99.90
16102;DHT22;56411;52.964;10.540;2023-07-22T04:17:30;10.90;99.90
16102;DHT22;56411;52.964;10.540;2023-07-22T04:19:57;11.00;99.90
16102;DHT22;56411;52.964;10.540;2023-07-22T04:22:24;11.00;99.90
16102;DHT22;56411;52.964;10.540;2023-07-22T04:24:51;11.00;99.90
16102;DHT22;56411;52.964;10.540;2023-07-22T04:27:18;11.00;99.90
16102;DHT22;56411;52.964;10.540;2023-07-22T04:29:45;11.00;99.90
16102;DHT22;56411;52.964;10.540;2023-07-22T04:32:14;11.00;99.90
16102;DHT22;56411;52.964;10.540;2023-07-22T04:34:41;11.00;99.90
16102;DHT22;56411;52.964;10.540;2023-07-22T04:37:08;11.10;99.90
16102;DHT22;56411;52.964;10.540;2023-07-22T04:39:36;11.10;99.90
16102;DHT22;56411;52.964;10.540;2023-07-22T04:42:03;11.10;99.90
16102;DHT22;56411;52.964;10.540;2023-07-22T04:44:30;11.20;99.90
16102;DHT22;56411;52.964;10.540;2023-07-22T04:46:57;11.20;99.90
16102;DHT22;56411;52.964;10.540;2023-07-22T04:49:26;11.20;99.90
16102;DHT22;56411;52.964;10.540;2023-07-22T04:51:53;11.30;99.90
16102;DHT22;56411;52.964;10.540;2023-07-22T04:54:20;11.30;99.90
16102;DHT22;56411;52.964;10.540;2023-07-22T04:56:47;11.40;99.90
16102;DHT22;56411;52.964;10.540;2023-07-22T04:59:14;11.40;99.90
16102;DHT22;56411;52.964;10.540;2023-07-22T05:01:41;11.50;99.90
16102;DHT22;56411;52.964;10.540;2023-07-22T05:04:09;11.50;99.90
16102;DHT22;56411;52.964;10.540;2023-07-22T05:06:37;11.60;99.90
16102;DHT22;56411;52.964;10.540;2023-07-22T05:09:04;11.60;99.90
16102;DHT22;56411;52.964;10.540;2023-07-22T05:11:32;11.60;99.90
16102;DHT22;56411;52.964;10.540;2023-07-22T05:13:59;11.70;99.90
16102;DHT22;56411;52.964;10.540;2023-07-22T05:16:26;11.80;99.90
16102;DHT22;56411;52.964;10.540;2023-07-22T05:18:53;11.80;99.90
16102;DHT22;56411;52.964;10.540;2023-07-22T05:21:20;11.80;99.90
16102;DHT22;56411;52.964;10.540;2023-07-22T05:23:48;11.90;99.90
16102;DHT22;56411;52.964;10.540;2023-07-22T05:26:16;11.90;99.90
16102;DHT22;56411;52.964;10.540;2023-07-22T05:28:42;12.00;99.90
16102;DHT22;56411;52.964;10.540;2023-07-22T05:31:10;12.00;99.90
16102;DHT22;56411;52.964;10.540;2023-07-22T05:33:37;12.00;99.90
16102;DHT22;56411;52.964;10.540;2023-07-22T05:36:05;12.00;99.90
16102;DHT22;56411;52.964;10.540;2023-07-22T05:38:32;12.10;99.90
16102;DHT22;56411;52.964;10.540;2023-07-22T05:41:00;12.20;99.90
16102;DHT22;56411;52.964;10.540;2023-07-22T05:43:27;12.20;99.90
16102;DHT22;56411;52.964;10.540;2023-07-22T05:45:54;12.30;99.90
16102;DHT22;56411;52.964;10.540;2023-07-22T05:48:22;12.40;99.90
16102;DHT22;56411;52.964;10.540;2023-07-22T05:50:50;12.40;99.90
16102;DHT22;56411;52.964;10.540;2023-07-22T05:53:18;12.50;99.90
16102;DHT22;56411;52.964;10.540;2023-07-22T05:55:45;12.60;99.90
16102;DHT22;56411;52.964;10.540;2023-07-22T05:58:22;12.60;99.90
16102;DHT22;56411;52.964;10.540;2023-07-22T06:00:49;12.70;99.90
16102;DHT22;56411;52.964;10.540;2023-07-22T06:03:17;12.80;99.90
16102;DHT22;56411;52.964;10.540;2023-07-22T06:05:44;12.90;99.90
16102;DHT22;56411;52.964;10.540;2023-07-22T06:08:11;12.90;99.90
16102;DHT22;56411;52.964;10.540;2023-07-22T06:10:39;12.90;99.90
16102;DHT22;56411;52.964;10.540;2023-07-22T06:13:06;13.00;99.90
16102;DHT22;56411;52.964;10.540;2023-07-22T06:15:35;13.00;99.90
16102;DHT22;56411;52.964;10.540;2023-07-22T06:18:02;13.10;99.90
16102;DHT22;56411;52.964;10.540;2023-07-22T06:20:33;13.20;99.90
16102;DHT22;56411;52.964;10.540;2023-07-22T06:23:01;13.30;99.90
16102;DHT22;56411;52.964;10.540;2023-07-22T06:25:28;13.40;99.90
16102;DHT22;56411;52.964;10.540;2023-07-22T06:27:55;13.50;99.90
16102;DHT22;56411;52.964;10.540;2023-07-22T06:30:23;13.50;99.90
16102;DHT22;56411;52.964;10.540;2023-07-22T06:32:51;13.50;99.90
16102;DHT22;56411;52.964;10.540;2023-07-22T06:35:18;13.50;99.90
16102;DHT22;56411;52.964;10.540;2023-07-22T06:37:45;13.60;99.90
16102;DHT22;56411;52.964;10.540;2023-07-22T06:40:12;13.70;99.90
16102;DHT22;56411;52.964;10.540;2023-07-22T06:42:39;13.80;99.90
16102;DHT22;56411;52.964;10.540;2023-07-22T06:45:07;13.90;99.90
16102;DHT22;56411;52.964;10.540;2023-07-22T06:47:34;13.90;99.90
16102;DHT22;56411;52.964;10.540;2023-07-22T06:50:03;13.90;99.90
16102;DHT22;56411;52.964;10.540;2023-07-22T06:52:31;13.90;99.90
16102;DHT22;56411;52.964;10.540;2023-07-22T06:54:58;13.90;99.90
16102;DHT22;56411;52.964;10.540;2023-07-22T06:57:26;13.80;99.90
16102;DHT22;56411;52.964;10.540;2023-07-22T06:59:53;13.90;99.90
16102;DHT22;56411;52.964;10.540;2023-07-22T07:02:21;14.00;99.90
16102;DHT22;56411;52.964;10.540;2023-07-22T07:04:49;14.00;99.90
16102;DHT22;56411;52.964;10.540;2023-07-22T07:07:17;14.10;99.90
16102;DHT22;56411;52.964;10.540;2023-07-22T07:09:45;14.30;99.90
16102;DHT22;56411;52.964;10.540;2023-07-22T07:12:12;14.40;99.90
16102;DHT22;56411;52.964;10.540;2023-07-22T07:14:40;14.50;99.90
16102;DHT22;56411;52.964;10.540;2023-07-22T07:17:07;14.60;99.90
16102;DHT22;56411;52.964;10.540;2023-07-22T07:19:34;14.80;99.90
16102;DHT22;56411;52.964;10.540;2023-07-22T07:22:01;14.90;99.90
16102;DHT22;56411;52.964;10.540;2023-07-22T07:24:43;14.90;99.90
16102;DHT22;56411;52.964;10.540;2023-07-22T07:27:10;14.80;99.90
16102;DHT22;56411;52.964;10.540;2023-07-22T07:29:38;14.90;99.90
16102;DHT22;56411;52.964;10.540;2023-07-22T07:32:05;15.00;99.90
16102;DHT22;56411;52.964;10.540;2023-07-22T07:34:32;15.20;99.90
16102;DHT22;56411;52.964;10.540;2023-07-22T07:37:00;15.40;99.90
16102;DHT22;56411;52.964;10.540;2023-07-22T07:39:28;15.60;99.90
16102;DHT22;56411;52.964;10.540;2023-07-22T07:41:56;15.60;99.90
16102;DHT22;56411;52.964;10.540;2023-07-22T07:44:23;15.60;99.90
16102;DHT22;56411;52.964;10.540;2023-07-22T07:46:51;15.70;99.90
16102;DHT22;56411;52.964;10.540;2023-07-22T07:49:20;15.80;99.90
16102;DHT22;56411;52.964;10.540;2023-07-22T07:51:47;15.70;99.90
16102;DHT22;56411;52.964;10.540;2023-07-22T07:54:14;15.90;99.90
16102;DHT22;56411;52.964;10.540;2023-07-22T07:56:41;16.00;99.90
16102;DHT22;56411;52.964;10.540;2023-07-22T07:59:10;16.10;99.90
16102;DHT22;56411;52.964;10.540;2023-07-22T08:01:37;16.20;99.90
16102;DHT22;56411;52.964;10.540;2023-07-22T08:04:07;16.20;99.90
16102;DHT22;56411;52.964;10.540;2023-07-22T08:06:34;16.20;99.90
16102;DHT22;56411;52.964;10.540;2023-07-22T08:09:03;16.20;99.90
16102;DHT22;56411;52.964;10.540;2023-07-22T08:11:31;16.10;99.90
16102;DHT22;56411;52.964;10.540;2023-07-22T08:13:58;16.00;99.90
16102;DHT22;56411;52.964;10.540;2023-07-22T08:16:26;16.10;99.90
16102;DHT22;56411;52.964;10.540;2023-07-22T08:18:53;16.10;99.90
16102;DHT22;56411;52.964;10.540;2023-07-22T08:21:20;16.20;99.90
16102;DHT22;56411;52.964;10.540;2023-07-22T08:23:47;16.30;99.90
16102;DHT22;56411;52.964;10.540;2023-07-22T08:26:14;16.30;99.90
16102;DHT22;56411;52.964;10.540;2023-07-22T08:28:46;16.30;99.90
16102;DHT22;56411;52.964;10.540;2023-07-22T08:31:13;16.30;99.90
16102;DHT22;56411;52.964;10.540;2023-07-22T08:33:41;16.30;99.90
16102;DHT22;56411;52.964;10.540;2023-07-22T08:36:09;16.40;99.90
16102;DHT22;56411;52.964;10.540;2023-07-22T08:38:36;16.70;99.90
16102;DHT22;56411;52.964;10.540;2023-07-22T08:41:04;16.70;99.90
16102;DHT22;56411;52.964;10.540;2023-07-22T08:43:32;16.90;99.90
16102;DHT22;56411;52.964;10.540;2023-07-22T08:46:01;17.00;99.90
16102;DHT22;56411;52.964;10.540;2023-07-22T08:48:31;17.10;99.90
16102;DHT22;56411;52.964;10.540;2023-07-22T08:51:03;17.00;99.90
16102;DHT22;56411;52.964;10.540;2023-07-22T08:53:32;17.10;99.90
16102;DHT22;56411;52.964;10.540;2023-07-22T08:56:00;17.10;99.90
16102;DHT22;56411;52.964;10.540;2023-07-22T08:58:28;17.10;99.90
16102;DHT22;56411;52.964;10.540;2023-07-22T09:00:56;17.00;99.90
16102;DHT22;56411;52.964;10.540;2023-07-22T09:03:26;17.00;99.90
16102;DHT22;56411;52.964;10.540;2023-07-22T09:05:55;17.00;99.90
16102;DHT22;56411;52.964;10.540;2023-07-22T09:08:27;17.10;99.90
16102;DHT22;56411;52.964;10.540;2023-07-22T09:10:54;17.20;99.90
16102;DHT22;56411;52.964;10.540;2023-07-22T09:13:26;17.50;99.90
16102;DHT22;56411;52.964;10.540;2023-07-22T09:15:53;17.40;99.90
16102;DHT22;56411;52.964;10.540;2023-07-22T09:18:20;17.10;99.90
16102;DHT22;56411;52.964;10.540;2023-07-22T09:20:49;17.20;99.90
16102;DHT22;56411;52.964;10.540;2023-07-22T09:23:18;17.30;99.90
16102;DHT22;56411;52.964;10.540;2023-07-22T09:26:10;17.30;99.90
16102;DHT22;56411;52.964;10.540;2023-07-22T09:28:49;17.10;99.90
16102;DHT22;56411;52.964;10.540;2023-07-22T09:31:19;17.20;99.90
16102;DHT22;56411;52.964;10.540;2023-07-22T09:33:48;17.30;99.90
16102;DHT22;56411;52.964;10.540;2023-07-22T09:36:17;17.40;99.90
16102;DHT22;56411;52.964;10.540;2023-07-22T09:38:45;17.40;99.90
16102;DHT22;56411;52.964;10.540;2023-07-22T09:41:27;17.50;99.90
16102;DHT22;56411;52.964;10.540;2023-07-22T09:43:56;17.60;99.90
16102;DHT22;56411;52.964;10.540;2023-07-22T09:46:32;17.70;99.90
16102;DHT22;56411;52.964;10.540;2023-07-22T09:49:03;17.80;99.90
16102;DHT22;56411;52.964;10.540;2023-07-22T09:51:34;17.90;99.90
16102;DHT22;56411;52.964;10.540;2023-07-22T09:54:04;18.20;99.90
16102;DHT22;56411;52.964;10.540;2023-07-22T09:56:47;18.30;99.90
16102;DHT22;56411;52.964;10.540;2023-07-22T09:59:15;18.20;99.90
16102;DHT22;56411;52.964;10.540;2023-07-22T10:01:44;18.20;99.90
16102;DHT22;56411;52.964;10.540;2023-07-22T10:04:15;18.30;99.90
16102;DHT22;56411;52.964;10.540;2023-07-22T10:06:43;18.20;99.90
16102;DHT22;56411;52.964;10.540;2023-07-22T10:09:13;18.20;99.90
16102;DHT22;56411;52.964;10.540;2023-07-22T10:11:46;18.00;99.90
16102;DHT22;56411;52.964;10.540;2023-07-22T10:14:13;17.90;99.90
16102;DHT22;56411;52.964;10.540;2023-07-22T10:16:43;18.20;99.90
16102;DHT22;56411;52.964;10.540;2023-07-22T10:19:12;18.40;99.90
16102;DHT22;56411;52.964;10.540;2023-07-22T10:21:40;18.30;99.90
16102;DHT22;56411;52.964;10.540;2023-07-22T10:24:08;18.30;99.90
16102;DHT22;56411;52.964;10.540;2023-07-22T10:26:38;18.40;99.90
16102;DHT22;56411;52.964;10.540;2023-07-22T10:29:12;18.50;99.90
16102;DHT22;56411;52.964;10.540;2023-07-22T10:31:43;18.90;99.90
16102;DHT22;56411;52.964;10.540;2023-07-22T10:34:12;19.30;99.90
16102;DHT22;56411;52.964;10.540;2023-07-22T10:36:47;19.20;99.90
16102;DHT22;56411;52.964;10.540;2023-07-22T10:39:26;19.00;99.90
16102;DHT22;56411;52.964;10.540;2023-07-22T10:42:05;18.90;99.90
16102;DHT22;56411;52.964;10.540;2023-07-22T10:44:37;19.20;99.90
16102;DHT22;56411;52.964;10.540;2023-07-22T10:47:07;19.50;99.90
16102;DHT22;56411;52.964;10.540;2023-07-22T10:49:48;19.70;99.90
16102;DHT22;56411;52.964;10.540;2023-07-22T10:52:37;19.90;99.90
16102;DHT22;56411;52.964;10.540;2023-07-22T10:55:14;20.00;99.90
16102;DHT22;56411;52.964;10.540;2023-07-22T10:57:54;19.90;99.90
16102;DHT22;56411;52.964;10.540;2023-07-22T11:00:29;19.60;99.90
16102;DHT22;56411;52.964;10.540;2023-07-22T11:03:11;19.40;99.90
16102;DHT22;56411;52.964;10.540;2023-07-22T11:05:57;19.40;99.90
16102;DHT22;56411;52.964;10.540;2023-07-22T11:08:40;19.80;99.90
16102;DHT22;56411;52.964;10.540;2023-07-22T11:11:07;20.20;99.90
16102;DHT22;56411;52.964;10.540;2023-07-22T11:13:38;20.00;99.90
16102;DHT22;56411;52.964;10.540;2023-07-22T11:16:12;19.90;99.90
16102;DHT22;56411;52.964;10.540;2023-07-22T11:18:40;20.00;99.90
16102;DHT22;56411;52.964;10.540;2023-07-22T11:21:08;19.70;99.90
16102;DHT22;56411;52.964;10.540;2023-07-22T11:23:35;19.80;99.90
16102;DHT22;56411;52.964;10.540;2023-07-22T11:26:03;19.60;99.90
16102;DHT22;56411;52.964;10.540;2023-07-22T11:28:31;19.70;99.90
16102;DHT22;56411;52.964;10.540;2023-07-22T11:30:58;20.00;99.90
16102;DHT22;56411;52.964;10.540;2023-07-22T11:33:37;20.40;99.90
16102;DHT22;56411;52.964;10.540;2023-07-22T11:36:05;21.20;99.90
16102;DHT22;56411;52.964;10.540;2023-07-22T11:38:32;21.90;99.90
16102;DHT22;56411;52.964;10.540;2023-07-22T11:41:00;21.90;99.90
16102;DHT22;56411;52.964;10.540;2023-07-22T11:43:27;21.50;99.90
16102;DHT22;56411;52.964;10.540;2023-07-22T11:45:54;20.60;99.90
16102;DHT22;56411;52.964;10.540;2023-07-22T11:48:51;20.10;99.90
16102;DHT22;56411;52.964;10.540;2023-07-22T11:51:19;20.10;99.90
16102;DHT22;56411;52.964;10.540;2023-07-22T11:56:29;20.60;99.90
16102;DHT22;56411;52.964;10.540;2023-07-22T12:01:19;21.80;99.90
16102;DHT22;56411;52.964;10.540;2023-07-22T12:04:41;21.60;99.90
16102;DHT22;56411;52.964;10.540;2023-07-22T12:07:52;21.90;99.90
16102;DHT22;56411;52.964;10.540;2023-07-22T12:10:36;21.90;99.90
16102;DHT22;56411;52.964;10.540;2023-07-22T12:13:44;21.80;99.90
16102;DHT22;56411;52.964;10.540;2023-07-22T12:19:27;22.20;99.90
16102;DHT22;56411;52.964;10.540;2023-07-22T12:21:59;22.70;99.90
16102;DHT22;56411;52.964;10.540;2023-07-22T12:24:27;21.80;99.90
16102;DHT22;56411;52.964;10.540;2023-07-22T12:26:55;20.90;99.90
16102;DHT22;56411;52.964;10.540;2023-07-22T12:29:23;21.00;99.90
16102;DHT22;56411;52.964;10.540;2023-07-22T12:31:52;21.40;99.90
16102;DHT22;56411;52.964;10.540;2023-07-22T12:34:21;22.00;99.90
16102;DHT22;56411;52.964;10.540;2023-07-22T12:36:48;22.70;99.90
16102;DHT22;56411;52.964;10.540;2023-07-22T12:39:17;22.70;99.90
16102;DHT22;56411;52.964;10.540;2023-07-22T12:41:44;22.90;99.90
16102;DHT22;56411;52.964;10.540;2023-07-22T12:44:11;22.40;99.90
16102;DHT22;56411;52.964;10.540;2023-07-22T12:46:38;22.30;99.90
16102;DHT22;56411;52.964;10.540;2023-07-22T12:49:05;21.70;99.90
16102;DHT22;56411;52.964;10.540;2023-07-22T12:51:33;22.00;99.90
16102;DHT22;56411;52.964;10.540;2023-07-22T12:54:00;22.50;99.90
16102;DHT22;56411;52.964;10.540;2023-07-22T12:56:29;22.40;99.90
16102;DHT22;56411;52.964;10.540;2023-07-22T12:58:56;22.20;99.90
16102;DHT22;56411;52.964;10.540;2023-07-22T13:01:23;22.80;99.90
16102;DHT22;56411;52.964;10.540;2023-07-22T13:03:50;23.70;99.90
16102;DHT22;56411;52.964;10.540;2023-07-22T13:06:17;24.20;99.90
16102;DHT22;56411;52.964;10.540;2023-07-22T13:08:44;24.10;99.90
16102;DHT22;56411;52.964;10.540;2023-07-22T13:11:12;23.40;99.90
16102;DHT22;56411;52.964;10.540;2023-07-22T13:13:41;23.10;99.90
16102;DHT22;56411;52.964;10.540;2023-07-22T13:16:09;22.90;99.90
16102;DHT22;56411;52.964;10.540;2023-07-22T13:18:36;23.20;99.90
16102;DHT22;56411;52.964;10.540;2023-07-22T13:21:03;22.70;99.90
16102;DHT22;56411;52.964;10.540;2023-07-22T13:23:30;22.00;99.90
16102;DHT22;56411;52.964;10.540;2023-07-22T13:25:58;21.80;99.90
16102;DHT22;56411;52.964;10.540;2023-07-22T13:28:27;21.50;99.90
16102;DHT22;56411;52.964;10.540;2023-07-22T13:30:56;21.30;99.90
16102;DHT22;56411;52.964;10.540;2023-07-22T13:33:23;21.20;99.90
16102;DHT22;56411;52.964;10.540;2023-07-22T13:35:51;21.00;99.90
16102;DHT22;56411;52.964;10.540;2023-07-22T13:38:18;21.10;99.90
16102;DHT22;56411;52.964;10.540;2023-07-22T13:40:46;21.10;99.90
16102;DHT22;56411;52.964;10.540;2023-07-22T13:43:13;20.90;99.90
16102;DHT22;56411;52.964;10.540;2023-07-22T13:45:43;20.70;99.90
16102;DHT22;56411;52.964;10.540;2023-07-22T13:48:15;20.30;99.90
16102;DHT22;56411;52.964;10.540;2023-07-22T13:50:41;20.40;99.90
16102;DHT22;56411;52.964;10.540;2023-07-22T13:53:09;20.50;99.90
16102;DHT22;56411;52.964;10.540;2023-07-22T13:55:36;20.80;99.90
16102;DHT22;56411;52.964;10.540;2023-07-22T13:58:03;21.00;99.90
16102;DHT22;56411;52.964;10.540;2023-07-22T14:00:30;21.00;99.90
16102;DHT22;56411;52.964;10.540;2023-07-22T14:02:57;21.20;99.90
16102;DHT22;56411;52.964;10.540;2023-07-22T14:05:26;21.00;99.90
16102;DHT22;56411;52.964;10.540;2023-07-22T14:07:53;20.80;99.90
16102;DHT22;56411;52.964;10.540;2023-07-22T14:10:20;20.60;99.90
16102;DHT22;56411;52.964;10.540;2023-07-22T14:12:47;20.40;99.90
16102;DHT22;56411;52.964;10.540;2023-07-22T14:15:14;20.10;99.90
16102;DHT22;56411;52.964;10.540;2023-07-22T14:17:41;20.00;99.90
16102;DHT22;56411;52.964;10.540;2023-07-22T14:20:08;19.80;99.90
16102;DHT22;56411;52.964;10.540;2023-07-22T14:22:38;19.70;99.90
16102;DHT22;56411;52.964;10.540;2023-07-22T14:25:05;19.60;99.90
16102;DHT22;56411;52.964;10.540;2023-07-22T14:27:33;19.50;99.90
16102;DHT22;56411;52.964;10.540;2023-07-22T14:30:00;19.50;99.90
16102;DHT22;56411;52.964;10.540;2023-07-22T14:32:29;19.50;99.90
16102;DHT22;56411;52.964;10.540;2023-07-22T14:34:56;19.60;99.90
16102;DHT22;56411;52.964;10.540;2023-07-22T14:37:25;19.60;99.90
16102;DHT22;56411;52.964;10.540;2023-07-22T14:39:54;19.50;99.90
16102;DHT22;56411;52.964;10.540;2023-07-22T14:42:21;19.30;99.90
16102;DHT22;56411;52.964;10.540;2023-07-22T14:44:49;19.30;99.90
16102;DHT22;56411;52.964;10.540;2023-07-22T14:47:16;19.40;99.90
16102;DHT22;56411;52.964;10.540;2023-07-22T14:49:45;19.30;99.90
16102;DHT22;56411;52.964;10.540;2023-07-22T14:52:12;19.40;99.90
16102;DHT22;56411;52.964;10.540;2023-07-22T14:54:39;19.50;99.90
16102;DHT22;56411;52.964;10.540;2023-07-22T14:57:09;19.70;99.90
16102;DHT22;56411;52.964;10.540;2023-07-22T14:59:36;19.80;99.90
16102;DHT22;56411;52.964;10.540;2023-07-22T15:02:04;19.80;99.90
16102;DHT22;56411;52.964;10.540;2023-07-22T15:04:31;19.60;99.90
16102;DHT22;56411;52.964;10.540;2023-07-22T15:06:58;19.40;99.90
16102;DHT22;56411;52.964;10.540;2023-07-22T15:09:25;19.30;99.90
16102;DHT22;56411;52.964;10.540;2023-07-22T15:11:52;19.40;99.90
16102;DHT22;56411;52.964;10.540;2023-07-22T15:14:21;19.40;99.90
16102;DHT22;56411;52.964;10.540;2023-07-22T15:16:54;19.30;99.90
16102;DHT22;56411;52.964;10.540;2023-07-22T15:19:22;19.20;99.90
16102;DHT22;56411;52.964;10.540;2023-07-22T15:21:50;19.20;99.90
16102;DHT22;56411;52.964;10.540;2023-07-22T15:24:19;19.20;99.90
16102;DHT22;56411;52.964;10.540;2023-07-22T15:26:48;19.10;99.90
16102;DHT22;56411;52.964;10.540;2023-07-22T15:29:18;19.10;99.90
16102;DHT22;56411;52.964;10.540;2023-07-22T15:31:48;19.00;99.90
16102;DHT22;56411;52.964;10.540;2023-07-22T15:34:16;18.90;99.90